createdAt,value
2018-09-21T00:02:13.310Z,3.50
2018-09-21T00:04:46.909Z,3.70
2018-09-21T00:07:21.457Z,3.30
2018-09-21T00:09:54.164Z,3.63
2018-09-21T00:12:26.712Z,3.60
2018-09-21T00:15:04.910Z,4.22
2018-09-21T00:17:37.628Z,3.50
2018-09-21T00:20:11.028Z,4.10
2018-09-21T00:22:43.979Z,3.83
2018-09-21T00:25:16.570Z,4.33
2018-09-21T00:27:49.116Z,4.03
2018-09-21T00:30:22.116Z,4.00
2018-09-21T00:32:54.710Z,3.33
2018-09-21T00:35:27.357Z,3.73
2018-09-21T00:38:00.507Z,3.80
2018-09-21T00:40:33.430Z,3.73
2018-09-21T00:43:06.269Z,3.47
2018-09-21T00:45:39.311Z,4.10
2018-09-21T00:48:11.832Z,4.15
2018-09-21T00:50:44.412Z,3.57
2018-09-21T00:53:17.202Z,4.03
2018-09-21T00:55:49.760Z,4.10
2018-09-21T00:58:22.768Z,3.83
2018-09-21T01:00:56.788Z,3.77
2018-09-21T01:03:29.557Z,4.03
2018-09-21T01:06:02.888Z,4.40
2018-09-21T01:08:35.716Z,3.80
2018-09-21T01:11:08.379Z,3.93
2018-09-21T01:13:40.915Z,3.67
2018-09-21T01:16:21.596Z,4.13
2018-09-21T01:18:55.856Z,4.40
2018-09-21T01:21:28.453Z,3.90
2018-09-21T01:24:02.427Z,3.63
2018-09-21T01:26:35.269Z,3.93
2018-09-21T01:29:08.408Z,4.13
2018-09-21T01:31:41.900Z,4.63
2018-09-21T01:34:14.649Z,3.80
2018-09-21T01:36:47.294Z,3.83
2018-09-21T01:39:20.160Z,3.80
2018-09-21T01:41:52.733Z,4.63
2018-09-21T01:44:26.459Z,3.90
2018-09-21T01:46:59.224Z,3.73
2018-09-21T01:49:32.348Z,3.77
2018-09-21T01:52:04.956Z,4.37
2018-09-21T01:54:37.488Z,4.73
2018-09-21T01:57:11.050Z,3.80
2018-09-21T01:59:43.445Z,4.20
2018-09-21T02:02:16.012Z,4.10
2018-09-21T02:04:48.827Z,4.20
2018-09-21T02:07:21.447Z,4.20
2018-09-21T02:09:53.994Z,4.90
2018-09-21T02:12:26.933Z,4.13
2018-09-21T02:14:59.727Z,4.20
2018-09-21T02:17:34.065Z,4.80
2018-09-21T02:20:07.401Z,4.30
2018-09-21T02:22:39.964Z,3.80
2018-09-21T02:25:12.575Z,3.97
2018-09-21T02:27:45.491Z,3.77
2018-09-21T02:30:18.101Z,4.10
2018-09-21T02:32:50.891Z,4.17
2018-09-21T02:35:24.024Z,4.13
2018-09-21T02:37:56.416Z,4.23
2018-09-21T02:40:29.304Z,4.43
2018-09-21T02:43:02.212Z,4.30
2018-09-21T02:45:35.562Z,4.57
2018-09-21T02:48:09.289Z,4.30
2018-09-21T02:50:42.413Z,3.90
2018-09-21T02:53:16.552Z,3.83
2018-09-21T02:55:49.208Z,3.80
2018-09-21T02:58:23.189Z,3.80
2018-09-21T03:00:55.977Z,4.40
2018-09-21T03:03:28.388Z,3.90
2018-09-21T03:06:01.327Z,3.70
2018-09-21T03:08:34.152Z,4.00
2018-09-21T03:11:07.032Z,3.63
2018-09-21T03:13:40.237Z,3.80
2018-09-21T03:16:12.652Z,4.67
2018-09-21T03:18:47.993Z,3.70
2018-09-21T03:21:22.917Z,3.30
2018-09-21T03:23:56.848Z,3.60
2018-09-21T03:26:29.364Z,4.40
2018-09-21T03:29:02.309Z,4.40
2018-09-21T03:31:34.943Z,3.73
2018-09-21T03:34:07.491Z,4.27
2018-09-21T03:36:40.302Z,4.13
2018-09-21T03:39:12.836Z,4.30
2018-09-21T03:41:45.451Z,3.80
2018-09-21T03:44:18.757Z,3.97
2018-09-21T03:46:51.241Z,4.03
2018-09-21T03:49:25.164Z,3.70
2018-09-21T03:51:57.957Z,4.60
2018-09-21T03:54:31.843Z,4.03
2018-09-21T03:57:04.422Z,3.87
2018-09-21T03:59:37.308Z,4.57
2018-09-21T04:02:10.176Z,4.00
2018-09-21T04:04:43.820Z,4.40
2018-09-21T04:07:16.766Z,4.83
2018-09-21T04:09:50.177Z,3.80
2018-09-21T04:12:22.939Z,3.90
2018-09-21T04:14:57.119Z,4.00
2018-09-21T04:17:29.760Z,4.47
2018-09-21T04:20:02.277Z,4.20
2018-09-21T04:22:35.076Z,4.17
2018-09-21T04:25:09.646Z,4.57
2018-09-21T04:27:42.343Z,3.90
2018-09-21T04:30:20.017Z,3.87
2018-09-21T04:32:54.566Z,4.83
2018-09-21T04:35:28.073Z,4.27
2018-09-21T04:38:02.509Z,4.47
2018-09-21T04:40:34.994Z,4.10
2018-09-21T04:43:07.560Z,4.07
2018-09-21T04:45:41.454Z,4.40
2018-09-21T04:48:14.869Z,4.17
2018-09-21T04:50:47.437Z,4.37
2018-09-21T04:53:20.359Z,4.27
2018-09-21T04:55:53.096Z,4.00
2018-09-21T04:58:25.706Z,4.17
2018-09-21T05:00:58.472Z,4.70
2018-09-21T05:03:31.874Z,4.30
2018-09-21T05:06:05.921Z,4.40
2018-09-21T05:08:39.450Z,4.20
2018-09-21T05:11:12.370Z,4.60
2018-09-21T05:13:45.117Z,4.20
2018-09-21T05:16:17.620Z,4.47
2018-09-21T05:18:52.413Z,4.30
2018-09-21T05:21:25.031Z,4.67
2018-09-21T05:23:59.088Z,4.33
2018-09-21T05:26:32.740Z,4.37
2018-09-21T05:29:07.468Z,4.33
2018-09-21T05:31:41.779Z,4.90
2018-09-21T05:34:14.556Z,4.67
2018-09-21T05:36:47.040Z,4.67
2018-09-21T05:39:20.709Z,4.27
2018-09-21T05:41:54.044Z,5.05
2018-09-21T05:44:26.716Z,4.83
2018-09-21T05:47:00.671Z,4.93
2018-09-21T05:49:34.075Z,4.70
2018-09-21T05:52:07.008Z,4.53
2018-09-21T05:54:40.104Z,4.87
2018-09-21T05:57:18.056Z,4.80
2018-09-21T05:59:51.560Z,5.13
2018-09-21T06:02:27.272Z,5.00
2018-09-21T06:05:06.984Z,5.07
2018-09-21T06:07:39.575Z,4.77
2018-09-21T06:10:12.082Z,5.37
2018-09-21T06:12:46.052Z,4.77
2018-09-21T06:15:19.490Z,4.57
2018-09-21T06:17:52.505Z,5.17
2018-09-21T06:20:25.635Z,5.00
2018-09-21T06:22:59.917Z,5.43
2018-09-21T06:25:33.772Z,5.10
2018-09-21T06:28:07.838Z,4.73
2018-09-21T06:30:43.126Z,4.87
2018-09-21T06:33:16.689Z,4.90
2018-09-21T06:35:49.822Z,5.27
2018-09-21T06:38:22.352Z,5.20
2018-09-21T06:40:54.963Z,4.90
2018-09-21T06:43:28.261Z,5.27
2018-09-21T06:46:00.933Z,5.90
2018-09-21T06:48:35.093Z,5.00
2018-09-21T06:51:08.742Z,5.57
2018-09-21T06:53:41.892Z,7.20
2018-09-21T06:56:15.294Z,5.03
2018-09-21T06:58:48.239Z,4.93
2018-09-21T07:01:21.549Z,5.67
2018-09-21T07:03:54.041Z,5.27
2018-09-21T07:06:26.949Z,4.90
2018-09-21T07:08:59.828Z,4.73
2018-09-21T07:11:34.293Z,4.80
2018-09-21T07:14:09.708Z,4.57
2018-09-21T07:16:42.635Z,4.90
2018-09-21T07:19:15.473Z,4.40
2018-09-21T07:21:50.825Z,4.73
2018-09-21T07:24:23.690Z,4.57
2018-09-21T07:26:56.232Z,4.57
2018-09-21T07:29:32.120Z,4.50
2018-09-21T07:32:05.561Z,4.20
2018-09-21T07:34:38.483Z,4.20
2018-09-21T07:37:11.124Z,4.00
2018-09-21T07:39:43.584Z,4.30
2018-09-21T07:42:16.565Z,4.07
2018-09-21T07:44:50.203Z,3.53
2018-09-21T07:47:23.981Z,3.87
2018-09-21T07:49:58.200Z,3.60
2018-09-21T07:52:33.457Z,3.13
2018-09-21T07:55:17.967Z,3.30
2018-09-21T07:57:51.632Z,3.70
2018-09-21T08:00:24.837Z,3.30
2018-09-21T08:03:05.240Z,2.87
2018-09-21T08:05:39.250Z,3.20
2018-09-21T08:08:12.866Z,2.93
2018-09-21T08:10:46.896Z,3.00
2018-09-21T08:13:20.765Z,2.70
2018-09-21T08:16:10.437Z,2.50
2018-09-21T08:18:43.163Z,2.77
2018-09-21T08:21:15.669Z,2.30
2018-09-21T08:23:48.476Z,2.33
2018-09-21T08:26:21.639Z,2.30
2018-09-21T08:28:54.296Z,2.40
2018-09-21T08:31:27.680Z,2.30
2018-09-21T08:34:02.952Z,2.13
2018-09-21T08:36:37.075Z,2.10
2018-09-21T08:39:11.956Z,2.20
2018-09-21T08:41:47.268Z,2.37
2018-09-21T08:44:22.691Z,2.70
2018-09-21T08:46:55.376Z,2.57
2018-09-21T08:49:29.138Z,3.27
2018-09-21T08:52:05.684Z,2.97
2018-09-21T08:54:40.433Z,3.63
2018-09-21T08:57:13.295Z,3.50
2018-09-21T08:59:46.936Z,2.10
2018-09-21T09:02:22.337Z,2.13
2018-09-21T09:04:55.913Z,2.43
2018-09-21T09:07:28.933Z,2.87
2018-09-21T09:10:02.268Z,2.73
2018-09-21T09:12:37.187Z,2.37
2018-09-21T09:15:13.934Z,2.50
2018-09-21T09:17:50.445Z,2.80
2018-09-21T09:20:24.789Z,2.73
2018-09-21T09:22:59.413Z,2.30
2018-09-21T09:25:33.696Z,2.20
2018-09-21T09:28:10.701Z,2.07
2018-09-21T09:30:46.021Z,2.40
2018-09-21T09:33:20.818Z,2.33
2018-09-21T09:35:54.360Z,2.93
2018-09-21T09:38:26.936Z,2.73
2018-09-21T09:41:03.337Z,2.13
2018-09-21T09:43:36.566Z,2.93
2018-09-21T09:46:12.953Z,2.40
2018-09-21T09:48:48.277Z,3.00
2018-09-21T09:51:25.181Z,2.70
2018-09-21T09:53:58.557Z,2.90
2018-09-21T09:56:32.568Z,2.73
2018-09-21T09:59:06.531Z,2.80
2018-09-21T10:01:44.476Z,2.93
2018-09-21T10:04:19.468Z,2.73
2018-09-21T10:06:54.967Z,3.40
2018-09-21T10:09:29.780Z,3.63
2018-09-21T10:12:02.384Z,3.33
2018-09-21T10:14:36.452Z,2.93
2018-09-21T10:17:09.785Z,3.90
2018-09-21T10:19:45.881Z,2.87
2018-09-21T10:22:21.041Z,3.43
2018-09-21T10:24:55.716Z,3.90
2018-09-21T10:27:29.345Z,3.70
2018-09-21T10:30:06.715Z,3.33
2018-09-21T10:32:40.209Z,3.30
2018-09-21T10:35:15.860Z,3.63
2018-09-21T10:37:51.593Z,4.03
2018-09-21T10:40:25.462Z,4.27
2018-09-21T10:42:59.583Z,3.50
2018-09-21T10:45:33.029Z,3.30
2018-09-21T10:48:06.488Z,3.20
2018-09-21T10:50:40.969Z,3.83
2018-09-21T10:53:15.629Z,3.27
2018-09-21T10:55:49.991Z,2.67
2018-09-21T10:58:24.280Z,2.93
2018-09-21T11:00:58.089Z,3.53
2018-09-21T11:03:32.222Z,3.30
2018-09-21T11:06:06.458Z,4.00
2018-09-21T11:08:41.624Z,3.85
2018-09-21T11:11:24.290Z,3.13
2018-09-21T11:13:57.472Z,3.03
2018-09-21T11:16:31.685Z,3.50
2018-09-21T11:19:09.811Z,3.00
2018-09-21T11:21:47.432Z,2.97
2018-09-21T11:24:21.144Z,2.93
2018-09-21T11:26:54.496Z,3.10
2018-09-21T11:29:27.545Z,3.10
2018-09-21T11:32:02.076Z,3.10
2018-09-21T11:34:35.367Z,3.63
2018-09-21T11:37:11.069Z,3.47
2018-09-21T11:39:44.760Z,4.07
2018-09-21T11:42:18.804Z,3.23
2018-09-21T11:44:51.539Z,3.70
2018-09-21T11:47:24.296Z,4.20
2018-09-21T11:49:59.412Z,2.67
2018-09-21T11:52:32.482Z,2.67
2018-09-21T11:55:07.679Z,3.00
2018-09-21T11:57:41.672Z,2.90
2018-09-21T12:00:16.821Z,2.90
2018-09-21T12:02:49.444Z,3.00
2018-09-21T12:05:25.055Z,3.40
2018-09-21T12:08:00.653Z,3.03
2018-09-21T12:10:34.662Z,2.90
2018-09-21T12:13:09.342Z,3.30
2018-09-21T12:15:45.644Z,3.07
2018-09-21T12:18:19.785Z,2.67
2018-09-21T12:20:56.301Z,2.70
2018-09-21T12:23:31.682Z,2.60
2018-09-21T12:26:06.169Z,2.90
2018-09-21T12:28:40.793Z,2.73
2018-09-21T12:31:18.794Z,3.20
2018-09-21T12:33:53.483Z,3.33
2018-09-21T12:36:28.645Z,3.13
2018-09-21T12:39:02.558Z,2.67
2018-09-21T12:41:38.457Z,3.13
2018-09-21T12:44:15.599Z,2.33
2018-09-21T12:46:48.176Z,2.13
2018-09-21T12:49:28.693Z,2.10
2018-09-21T12:52:03.426Z,2.13
2018-09-21T12:54:40.066Z,1.70
2018-09-21T12:57:14.320Z,2.13
2018-09-21T12:59:47.576Z,2.00
2018-09-21T13:02:21.737Z,1.50
2018-09-21T13:04:55.096Z,1.60
2018-09-21T13:07:28.637Z,1.30
2018-09-21T13:10:09.213Z,1.20
2018-09-21T13:12:46.363Z,1.60
2018-09-21T13:15:21.113Z,1.70
2018-09-21T13:17:55.394Z,1.37
2018-09-21T13:20:28.148Z,1.27
2018-09-21T13:23:05.360Z,1.53
2018-09-21T13:25:39.136Z,1.20
2018-09-21T13:28:12.272Z,1.10
2018-09-21T13:30:47.013Z,1.40
2018-09-21T13:33:23.024Z,1.20
2018-09-21T13:35:56.749Z,1.10
2018-09-21T13:38:31.302Z,1.07
2018-09-21T13:41:04.112Z,1.43
2018-09-21T13:43:37.004Z,1.23
2018-09-21T13:46:12.152Z,1.05
2018-09-21T13:48:48.457Z,1.20
2018-09-21T13:51:22.159Z,0.70
2018-09-21T13:53:54.809Z,0.70
2018-09-21T13:56:27.790Z,0.90
2018-09-21T13:59:02.704Z,0.90
2018-09-21T14:01:37.973Z,0.70
2018-09-21T14:04:12.054Z,1.00
2018-09-21T14:06:45.669Z,0.83
2018-09-21T14:09:20.597Z,0.80
2018-09-21T14:11:53.594Z,1.20
2018-09-21T14:14:28.213Z,0.93
2018-09-21T14:17:00.748Z,0.97
2018-09-21T14:19:33.698Z,0.90
2018-09-21T14:22:06.805Z,1.03
2018-09-21T14:24:44.644Z,0.87
2018-09-21T14:27:20.180Z,1.20
2018-09-21T14:29:54.308Z,1.00
2018-09-21T14:32:27.372Z,0.80
2018-09-21T14:35:01.181Z,0.90
2018-09-21T14:37:34.915Z,0.90
2018-09-21T14:40:09.255Z,0.87
2018-09-21T14:42:42.062Z,0.80
2018-09-21T14:45:17.915Z,1.00
2018-09-21T14:47:52.602Z,1.02
2018-09-21T14:50:25.699Z,0.80
2018-09-21T14:53:09.475Z,0.97
2018-09-21T14:55:42.921Z,1.10
2018-09-21T14:58:15.613Z,0.87
2018-09-21T15:00:49.597Z,0.82
2018-09-21T15:03:22.380Z,1.00
2018-09-21T15:05:57.064Z,0.70
2018-09-21T15:08:32.671Z,0.70
2018-09-21T15:11:06.113Z,1.03
2018-09-21T15:13:39.733Z,1.07
2018-09-21T15:16:13.453Z,0.90
2018-09-21T15:18:50.449Z,1.00
2018-09-21T15:21:25.299Z,0.93
2018-09-21T15:23:59.689Z,0.80
2018-09-21T15:26:36.384Z,1.00
2018-09-21T15:29:10.000Z,1.07
2018-09-21T15:31:42.585Z,0.90
2018-09-21T15:34:16.332Z,0.70
2018-09-21T15:36:50.837Z,0.90
2018-09-21T15:39:26.797Z,1.50
2018-09-21T15:42:01.561Z,0.90
2018-09-21T15:44:35.984Z,0.73
2018-09-21T15:47:08.834Z,0.80
2018-09-21T15:49:41.896Z,0.87
2018-09-21T15:52:14.455Z,0.93
2018-09-21T15:54:47.111Z,0.73
2018-09-21T15:57:21.302Z,0.88
2018-09-21T15:59:58.568Z,1.00
2018-09-21T16:02:31.372Z,0.67
2018-09-21T16:05:07.153Z,0.73
2018-09-21T16:07:41.597Z,0.67
2018-09-21T16:10:15.437Z,1.07
2018-09-21T16:12:49.424Z,0.77
2018-09-21T16:15:45.917Z,1.03
2018-09-21T16:18:22.093Z,0.90
2018-09-21T16:20:58.459Z,0.73
2018-09-21T16:23:32.646Z,0.70
2018-09-21T16:26:11.861Z,0.60
2018-09-21T16:28:48.252Z,0.77
2018-09-21T16:31:22.125Z,0.77
2018-09-21T16:33:55.188Z,0.70
2018-09-21T16:36:30.610Z,0.80
2018-09-21T16:39:08.185Z,0.80
2018-09-21T16:41:41.462Z,0.70
2018-09-21T16:44:17.895Z,0.70
2018-09-21T16:46:50.553Z,0.77
2018-09-21T16:49:23.484Z,0.67
2018-09-21T16:52:00.070Z,0.90
2018-09-21T16:54:34.165Z,0.90
2018-09-21T16:57:06.868Z,0.90
2018-09-21T16:59:40.573Z,0.90
2018-09-21T17:02:13.380Z,0.80
2018-09-21T17:04:49.773Z,0.70
2018-09-21T17:07:22.978Z,1.03
2018-09-21T17:09:57.563Z,0.97
2018-09-21T17:12:30.958Z,1.20
2018-09-21T17:15:07.278Z,0.73
2018-09-21T17:17:41.378Z,1.03
2018-09-21T17:20:19.053Z,0.90
2018-09-21T17:22:56.580Z,1.40
2018-09-21T17:25:32.236Z,0.90
2018-09-21T17:28:10.533Z,1.20
2018-09-21T17:30:46.292Z,1.00
2018-09-21T17:33:22.991Z,1.00
2018-09-21T17:35:58.108Z,1.10
2018-09-21T17:38:31.724Z,0.97
2018-09-21T17:41:08.405Z,1.10
2018-09-21T17:43:43.713Z,1.17
2018-09-21T17:46:20.312Z,1.10
2018-09-21T17:48:53.828Z,1.70
2018-09-21T17:51:26.623Z,1.10
2018-09-21T17:54:01.283Z,1.10
2018-09-21T17:56:35.041Z,1.50
2018-09-21T17:59:10.463Z,1.23
2018-09-21T18:01:52.823Z,1.10
2018-09-21T18:04:27.205Z,1.17
2018-09-21T18:07:03.637Z,1.65
2018-09-21T18:09:36.790Z,1.20
2018-09-21T18:12:10.517Z,1.23
2018-09-21T18:14:47.738Z,1.10
2018-09-21T18:17:21.346Z,1.27
2018-09-21T18:19:56.487Z,1.23
2018-09-21T18:22:33.409Z,1.30
2018-09-21T18:25:11.565Z,1.30
2018-09-21T18:27:46.321Z,1.67
2018-09-21T18:30:22.061Z,1.62
2018-09-21T18:32:57.850Z,2.33
2018-09-21T18:35:35.892Z,1.70
2018-09-21T18:38:13.555Z,1.70
2018-09-21T18:40:51.920Z,1.97
2018-09-21T18:43:29.257Z,2.00
2018-09-21T18:46:04.806Z,1.90
2018-09-21T18:48:39.665Z,1.30
2018-09-21T18:51:13.669Z,1.50
2018-09-21T18:53:50.005Z,1.30
2018-09-21T18:56:24.746Z,1.60
2018-09-21T18:58:57.844Z,1.70
2018-09-21T19:01:31.374Z,1.67
2018-09-21T19:04:07.600Z,1.50
2018-09-21T19:06:43.259Z,1.60
2018-09-21T19:09:23.072Z,1.60
2018-09-21T19:11:57.729Z,1.13
2018-09-21T19:14:31.391Z,1.70
2018-09-21T19:17:06.506Z,1.80
2018-09-21T19:20:00.392Z,1.50
2018-09-21T19:22:33.953Z,1.50
2018-09-21T19:25:10.244Z,1.63
2018-09-21T19:27:43.348Z,1.67
2018-09-21T19:30:34.811Z,1.80
2018-09-21T19:33:08.749Z,1.97
2018-09-21T19:35:44.449Z,1.90
2018-09-21T19:38:20.809Z,1.23
2018-09-21T19:40:58.884Z,1.70
2018-09-21T19:43:33.827Z,1.73
2018-09-21T19:46:11.528Z,2.00
2018-09-21T19:48:45.631Z,1.80
2018-09-21T19:51:19.629Z,1.93
2018-09-21T19:53:53.668Z,2.23
2018-09-21T19:56:26.463Z,1.80
2018-09-21T19:59:03.244Z,1.80
2018-09-21T20:01:41.161Z,1.90
2018-09-21T20:04:19.669Z,2.00
2018-09-21T20:06:57.041Z,2.27
2018-09-21T20:09:33.765Z,1.97
2018-09-21T20:12:09.404Z,2.00
2018-09-21T20:14:51.010Z,1.87
2018-09-21T20:17:30.645Z,1.73
2018-09-21T20:20:06.262Z,1.57
2018-09-21T20:22:43.913Z,1.60
2018-09-21T20:25:23.568Z,1.90
2018-09-21T20:28:02.540Z,1.90
2018-09-21T20:30:46.324Z,1.87
2018-09-21T20:33:24.264Z,1.77
2018-09-21T20:35:58.438Z,1.77
2018-09-21T20:38:33.257Z,2.17
2018-09-21T20:41:10.882Z,2.23
2018-09-21T20:43:44.758Z,2.03
2018-09-21T20:46:21.109Z,1.70
2018-09-21T20:48:59.003Z,1.87
2018-09-21T20:51:39.891Z,1.90
2018-09-21T20:54:15.780Z,2.20
2018-09-21T20:56:52.065Z,2.55
2018-09-21T20:59:31.028Z,2.40
2018-09-21T21:02:11.462Z,2.17
2018-09-21T21:04:47.359Z,1.90
2018-09-21T21:07:24.534Z,2.43
2018-09-21T21:09:59.636Z,2.47
2018-09-21T21:12:33.140Z,2.60
2018-09-21T21:15:15.505Z,3.20
2018-09-21T21:17:50.329Z,2.63
2018-09-21T21:20:24.258Z,2.70
2018-09-21T21:22:58.688Z,2.37
2018-09-21T21:25:36.195Z,2.50
2018-09-21T21:28:10.905Z,2.37
2018-09-21T21:30:45.349Z,2.20
2018-09-21T21:33:20.052Z,2.17
2018-09-21T21:35:54.574Z,2.90
2018-09-21T21:38:29.968Z,2.90
2018-09-21T21:41:07.640Z,3.27
2018-09-21T21:43:40.358Z,2.40
2018-09-21T21:46:24.670Z,3.67
2018-09-21T21:48:58.164Z,2.60
2018-09-21T21:51:30.940Z,2.90
2018-09-21T21:54:06.323Z,2.80
2018-09-21T21:56:40.181Z,3.40
2018-09-21T21:59:14.013Z,3.03
2018-09-21T22:01:48.677Z,2.50
2018-09-21T22:04:21.414Z,2.77
2018-09-21T22:06:54.097Z,2.60
2018-09-21T22:09:27.930Z,2.80
2018-09-21T22:12:06.644Z,2.37
2018-09-21T22:14:39.296Z,2.40
2018-09-21T22:17:14.403Z,3.10
2018-09-21T22:19:47.789Z,3.07
2018-09-21T22:22:24.885Z,2.60
2018-09-21T22:24:57.997Z,4.03
2018-09-21T22:27:32.102Z,2.77
2018-09-21T22:30:12.718Z,3.00
2018-09-21T22:32:46.244Z,3.27
2018-09-21T22:35:20.872Z,3.20
2018-09-21T22:37:54.725Z,3.30
2018-09-21T22:40:29.212Z,2.63
2018-09-21T22:43:01.799Z,2.93
2018-09-21T22:45:37.615Z,3.60
2018-09-21T22:48:10.223Z,2.67
2018-09-21T22:50:42.777Z,2.43
2018-09-21T22:53:16.740Z,3.73
2018-09-21T22:55:49.333Z,2.90
2018-09-21T22:58:23.017Z,3.10
2018-09-21T23:00:58.016Z,3.10
2018-09-21T23:03:31.273Z,2.57
2018-09-21T23:06:05.348Z,2.80
2018-09-21T23:08:40.461Z,3.10
2018-09-21T23:11:13.006Z,3.40
2018-09-21T23:13:46.043Z,3.17
2018-09-21T23:16:23.674Z,2.83
2018-09-21T23:18:57.852Z,3.00
2018-09-21T23:21:35.757Z,3.60
2018-09-21T23:24:12.426Z,3.10
2018-09-21T23:26:46.956Z,2.70
2018-09-21T23:29:19.932Z,3.30
2018-09-21T23:31:52.779Z,2.70
2018-09-21T23:34:26.495Z,3.40
2018-09-21T23:37:03.012Z,3.47
2018-09-21T23:39:37.174Z,3.70
2018-09-21T23:42:10.716Z,3.23
2018-09-21T23:44:44.776Z,3.07
2018-09-21T23:47:18.363Z,2.83
2018-09-21T23:49:50.928Z,3.23
2018-09-21T23:52:23.874Z,3.47
2018-09-21T23:54:56.557Z,3.47
2018-09-21T23:57:29.162Z,3.33
